Bookmark and Share
Track history (hours):
 

Scan Hansa

Last reported at 2012-Jun-11 11:33 UTC. Time now 2014-Apr-24 06:01 UTC.
Position N 43°21' E 005°19'.
Warning: this ship's position is years out of date!

Length 126.9 m; beam 20 m; draft 6.7 m.

Type: Cargo ship. MMSI: 234172000.

NotesDate/timePositionNaut miles runAvg speedWind from/ knotsBaromVisibWave heightAir tempDewpointWater temp
2012-Jun-11 11:33N 43°21' E 005°19'0 0.0
2012-Jun-11 10:33N 43°21' E 005°19'0 0.0
2012-Jun-11 09:33N 43°21' E 005°19'0 0.0
2012-Jun-11 08:33N 43°21' E 005°19'0 0.0
2012-Jun-11 07:33N 43°21' E 005°19'0 0.0
2012-Jun-11 06:33N 43°21' E 005°19'0 0.0
2012-Jun-11 05:33N 43°21' E 005°19'0 0.0
2012-Jun-11 04:36N 43°21' E 005°19'0 0.0
2012-Jun-11 03:33N 43°21' E 005°19'0 0.0
2012-Jun-11 02:33N 43°21' E 005°19'0 0.0
2012-Jun-11 01:33N 43°21' E 005°19'0 0.0
2012-Jun-11 00:32N 43°21' E 005°19'0 0.0
2012-Jun-10 23:32N 43°21' E 005°19'0 0.0
2012-Jun-10 22:32N 43°21' E 005°19'0 0.0
2012-Jun-10 21:32N 43°21' E 005°19'0 0.0
2012-Jun-10 20:32N 43°21' E 005°19'0 0.0
2012-Jun-10 19:32N 43°21' E 005°19'0 0.0
2012-Jun-10 18:32N 43°21' E 005°19'0 0.0
2012-Jun-10 17:32N 43°21' E 005°19'0 0.0
2012-Jun-10 16:32N 43°21' E 005°19'0 0.0
2012-Jun-10 15:32N 43°21' E 005°19'0 0.0
2012-Jun-10 14:32N 43°21' E 005°19'0 0.0
2012-Jun-10 13:32N 43°21' E 005°19'0 0.0
2012-Jun-10 12:32N 43°21' E 005°19'0 0.0
2012-Jun-10 11:32N 43°21' E 005°19'0 0.0
2012-Jun-10 10:35N 43°21' E 005°19'0 0.0
2012-Jun-10 09:32N 43°21' E 005°19'0 0.0
2012-Jun-10 08:32N 43°21' E 005°19'0 0.0
2012-Jun-10 07:32N 43°21' E 005°19'0 0.0
2012-Jun-10 06:26N 43°21' E 005°19'0 0.0
2012-Jun-10 05:32N 43°21' E 005°19'0 0.0
2012-Jun-10 04:35N 43°21' E 005°19'0 0.0
2012-Jun-10 03:32N 43°21' E 005°19'0 0.0
2012-Jun-10 02:32N 43°21' E 005°19'0 0.0
2012-Jun-10 01:32N 43°21' E 005°19'0 0.0
2012-Jun-10 00:32N 43°21' E 005°19'0 0.0
2012-Jun-09 23:32N 43°21' E 005°19'0 0.0
2012-Jun-09 22:32N 43°21' E 005°19'0 0.0
2012-Jun-09 21:32N 43°21' E 005°19'0 0.0
2012-Jun-09 20:32N 43°21' E 005°19'0 0.0
2012-Jun-09 19:32N 43°21' E 005°19'0 0.0
2012-Jun-09 18:32N 43°21' E 005°19'0 0.0
2012-Jun-09 17:32N 43°21' E 005°19'0 0.0
2012-Jun-09 16:32N 43°21' E 005°19'0 0.0
2012-Jun-09 15:32N 43°21' E 005°19'0 0.0
2012-Jun-09 14:32N 43°21' E 005°19'0 0.0
2012-Jun-09 13:29N 43°21' E 005°19'0 0.0
2012-Jun-09 12:32N 43°21' E 005°19'0 0.0
2012-Jun-09 11:31N 43°21' E 005°19'0 0.0
2012-Jun-09 10:34N 43°21' E 005°19'0 0.0
2012-Jun-09 09:31N 43°21' E 005°19'0 0.0
2012-Jun-09 08:31N 43°21' E 005°19'0 0.0
2012-Jun-09 07:31N 43°21' E 005°19'0 0.0
2012-Jun-09 06:31N 43°21' E 005°19'0 0.0
2012-Jun-09 05:31N 43°21' E 005°19'0 0.0
2012-Jun-08 11:28N 43°21' E 005°19'0 0.0
2012-Jun-08 08:28N 43°21' E 005°19'0 0.0
2012-Jun-08 04:34N 43°21' E 005°19'0 0.0
2012-Jun-08 01:34N 43°21' E 005°19'0 0.0
2012-Jun-08 00:33N 43°21' E 005°19'0 0.0
2012-Jun-07 22:33N 43°21' E 005°19'0 0.0
2012-Jun-06 06:30N 43°21' E 005°20'6 6.3
2012-Jun-06 05:33N 43°18' E 005°13'8 8.4
2012-Jun-06 04:36N 43°15' E 005°02'35 8.7
2012-Jun-06 00:33N 43°17' E 004°14'8 8.4
2012-Jun-05 23:33N 43°18' E 004°03'9 9.0
2012-Jun-05 22:33N 43°18' E 003°51'6 5.4
2012-Jun-05 21:30N 43°22' E 003°45'0 0.0
2012-Jun-05 20:30N 43°22' E 003°45'0 0.0
2012-Jun-05 19:30N 43°22' E 003°45'0 0.0
2012-Jun-05 18:24N 43°22' E 003°45'0 0.0
2012-Jun-05 17:29N 43°22' E 003°45'0 0.0
2012-Jun-05 15:29N 43°22' E 003°45'0 0.0
2012-Jun-05 14:23N 43°22' E 003°45'0 0.0
2012-Jun-05 13:23N 43°22' E 003°45'0 0.0
2012-Jun-05 12:23N 43°22' E 003°45'0 0.0
2012-Jun-05 11:29N 43°22' E 003°45'0 0.0
2012-Jun-05 09:29N 43°22' E 003°45'0 0.0
2012-Jun-05 08:29N 43°22' E 003°45'0 0.0
2012-Jun-05 07:29N 43°22' E 003°45'0 0.0
2012-Jun-05 06:29N 43°22' E 003°45'0 0.0
2012-Jun-05 05:29N 43°22' E 003°45'0 0.0
2012-Jun-05 04:35N 43°22' E 003°45'0 0.0
2012-Jun-05 03:29N 43°22' E 003°45'0 0.0
2012-Jun-05 01:29N 43°22' E 003°45'0 0.0
2012-Jun-05 00:29N 43°22' E 003°45'0 0.0
2012-Jun-04 23:29N 43°22' E 003°45'0 0.0
2012-Jun-04 22:29N 43°22' E 003°45'0 0.0
2012-Jun-04 21:29N 43°22' E 003°45'0 0.0
2012-Jun-04 20:29N 43°22' E 003°45'0 0.0
2012-Jun-04 18:29N 43°22' E 003°45'0 0.0
2012-Jun-04 17:29N 43°22' E 003°45'0 0.0
2012-Jun-04 14:29N 43°22' E 003°45'0 0.0
2012-Jun-04 13:29N 43°22' E 003°45'0 0.0
2012-Jun-04 11:29N 43°22' E 003°45'0 0.0
2012-Jun-04 10:35N 43°22' E 003°45'0 0.0
2012-Jun-04 09:29N 43°22' E 003°45'0 0.0
2012-Jun-04 08:23N 43°22' E 003°45'0 0.0
2012-Jun-04 07:29N 43°22' E 003°45'0 0.0
2012-Jun-04 06:29N 43°22' E 003°45'0 0.0
2012-Jun-04 05:28N 43°22' E 003°45'0 0.0
2012-Jun-04 03:28N 43°22' E 003°45'0 0.0
2012-Jun-04 02:28N 43°22' E 003°45'0 0.0
2012-Jun-04 01:28N 43°22' E 003°45'0 0.0
2012-Jun-04 00:28N 43°22' E 003°45'0 0.0
2012-Jun-03 22:28N 43°22' E 003°45'0 0.0
2012-Jun-03 18:28N 43°22' E 003°45'0 0.0
2012-Jun-03 17:28N 43°22' E 003°45'0 0.0
2012-Jun-03 16:28N 43°22' E 003°45'0 0.0
2012-Jun-03 15:28N 43°22' E 003°45'0 0.0
2012-Jun-03 14:28N 43°22' E 003°45'0 0.0
2012-Jun-03 09:28N 43°22' E 003°45'0 0.1
2012-Jun-03 08:28N 43°22' E 003°45'0 0.0
2012-Jun-03 07:28N 43°22' E 003°45'0 0.0
2012-Jun-03 05:28N 43°22' E 003°45'0 0.0
2012-Jun-03 03:28N 43°22' E 003°45'0 0.0
2012-Jun-02 21:28N 43°22' E 003°45'0 0.0
2012-Jun-02 20:28N 43°22' E 003°45'0 0.0
2012-Jun-02 19:28N 43°22' E 003°45'0 0.0
2012-Jun-02 18:28N 43°22' E 003°45'0 0.0
2012-Jun-02 17:34N 43°22' E 003°45'0 0.0
2012-Jun-02 16:33N 43°22' E 003°45'0 0.0
2012-Jun-02 15:33N 43°22' E 003°45'0 0.0
2012-Jun-02 14:33N 43°22' E 003°45'0 0.0
2012-Jun-02 13:33N 43°22' E 003°45'0 0.0
2012-Jun-02 12:27N 43°22' E 003°45'0 0.0
2012-Jun-02 11:33N 43°22' E 003°45'0 0.0
2012-Jun-02 07:33N 43°22' E 003°45'0 0.0
2012-Jun-02 06:33N 43°22' E 003°45'0 0.0
2012-Jun-02 05:33N 43°22' E 003°45'0 0.0
2012-Jun-02 04:33N 43°22' E 003°45'0 0.0
2012-Jun-02 03:27N 43°22' E 003°45'0 0.0
2012-Jun-02 02:33N 43°22' E 003°45'0 0.0
2012-Jun-02 01:33N 43°22' E 003°45'0 0.1
2012-Jun-02 00:33N 43°22' E 003°45'0 0.0
2012-Jun-01 23:33N 43°22' E 003°45'0 0.0
2012-Jun-01 22:33N 43°22' E 003°45'0 0.0
2012-Jun-01 21:33N 43°22' E 003°45'0 0.0
2012-Jun-01 20:33N 43°22' E 003°45'0 0.0
2012-Jun-01 19:33N 43°22' E 003°45'0 0.0
2012-Jun-01 18:33N 43°22' E 003°45'0 0.0
2012-Jun-01 17:33N 43°22' E 003°45'0 0.0
2012-Jun-01 16:33N 43°22' E 003°45'0 0.0
2012-Jun-01 14:33N 43°22' E 003°45'0 0.0
2012-Jun-01 13:33N 43°22' E 003°45'0 0.0
2012-Jun-01 12:33N 43°22' E 003°45'  

Dump ship's entire track history

sailing weather and tide predictions

Scan Hansa — MZUU6 — position and weather